sensor_id;sensor_type;location;lat;lon;timestamp;temperature;humidity
22471;DHT22;11402;51.374;6.594;2023-01-29T00:01:10;-1.70;99.90
22471;DHT22;11402;51.374;6.594;2023-01-29T00:03:36;-1.70;99.90
22471;DHT22;11402;51.374;6.594;2023-01-29T00:06:06;-1.70;99.90
22471;DHT22;11402;51.374;6.594;2023-01-29T00:08:36;-1.80;99.90
22471;DHT22;11402;51.374;6.594;2023-01-29T00:11:03;-1.80;99.90
22471;DHT22;11402;51.374;6.594;2023-01-29T00:13:30;-1.80;99.90
22471;DHT22;11402;51.374;6.594;2023-01-29T00:15:56;-1.80;99.90
22471;DHT22;11402;51.374;6.594;2023-01-29T00:18:23;-1.90;99.90
22471;DHT22;11402;51.374;6.594;2023-01-29T00:20:49;-1.80;99.90
22471;DHT22;11402;51.374;6.594;2023-01-29T00:23:15;-1.80;99.90
22471;DHT22;11402;51.374;6.594;2023-01-29T00:25:41;-1.90;99.90
22471;DHT22;11402;51.374;6.594;2023-01-29T00:28:07;-1.90;99.90
22471;DHT22;11402;51.374;6.594;2023-01-29T00:30:33;-1.80;99.90
22471;DHT22;11402;51.374;6.594;2023-01-29T00:32:58;-1.80;99.90
22471;DHT22;11402;51.374;6.594;2023-01-29T00:35:24;-1.90;99.90
22471;DHT22;11402;51.374;6.594;2023-01-29T00:37:49;-1.80;99.90
22471;DHT22;11402;51.374;6.594;2023-01-29T00:40:16;-1.90;99.90
22471;DHT22;11402;51.374;6.594;2023-01-29T00:42:44;-1.90;99.90
22471;DHT22;11402;51.374;6.594;2023-01-29T00:45:28;-1.90;99.90
22471;DHT22;11402;51.374;6.594;2023-01-29T00:47:53;-1.90;99.90
22471;DHT22;11402;51.374;6.594;2023-01-29T00:50:19;-2.00;99.90
22471;DHT22;11402;51.374;6.594;2023-01-29T00:52:45;-1.90;99.90
22471;DHT22;11402;51.374;6.594;2023-01-29T00:55:10;-1.90;99.90
22471;DHT22;11402;51.374;6.594;2023-01-29T00:57:36;-2.00;99.90
22471;DHT22;11402;51.374;6.594;2023-01-29T01:00:08;-2.10;99.90
22471;DHT22;11402;51.374;6.594;2023-01-29T01:02:34;-2.10;99.90
22471;DHT22;11402;51.374;6.594;2023-01-29T01:05:18;-2.10;99.90
22471;DHT22;11402;51.374;6.594;2023-01-29T01:07:49;-2.10;99.90
22471;DHT22;11402;51.374;6.594;2023-01-29T01:10:21;-2.10;99.90
22471;DHT22;11402;51.374;6.594;2023-01-29T01:12:54;-2.10;99.90
22471;DHT22;11402;51.374;6.594;2023-01-29T01:15:21;-2.00;99.90
22471;DHT22;11402;51.374;6.594;2023-01-29T01:17:51;-2.10;99.90
22471;DHT22;11402;51.374;6.594;2023-01-29T01:20:17;-2.10;99.90
22471;DHT22;11402;51.374;6.594;2023-01-29T01:22:43;-2.10;99.90
22471;DHT22;11402;51.374;6.594;2023-01-29T01:25:09;-2.10;99.90
22471;DHT22;11402;51.374;6.594;2023-01-29T01:27:34;-2.20;99.90
22471;DHT22;11402;51.374;6.594;2023-01-29T01:30:09;-2.20;99.90
22471;DHT22;11402;51.374;6.594;2023-01-29T01:32:36;-2.20;99.90
22471;DHT22;11402;51.374;6.594;2023-01-29T01:35:02;-2.20;99.90
22471;DHT22;11402;51.374;6.594;2023-01-29T01:37:27;-2.30;99.90
22471;DHT22;11402;51.374;6.594;2023-01-29T01:39:53;-2.20;99.90
22471;DHT22;11402;51.374;6.594;2023-01-29T01:42:26;-2.20;99.90
22471;DHT22;11402;51.374;6.594;2023-01-29T01:44:59;-2.20;99.90
22471;DHT22;11402;51.374;6.594;2023-01-29T01:47:43;-2.20;99.90
22471;DHT22;11402;51.374;6.594;2023-01-29T01:50:15;-2.20;99.90
22471;DHT22;11402;51.374;6.594;2023-01-29T01:52:45;-2.20;99.90
22471;DHT22;11402;51.374;6.594;2023-01-29T01:55:13;-2.20;99.90
22471;DHT22;11402;51.374;6.594;2023-01-29T01:57:42;-2.20;99.90
22471;DHT22;11402;51.374;6.594;2023-01-29T02:00:13;-2.30;99.90
22471;DHT22;11402;51.374;6.594;2023-01-29T02:02:41;-2.30;99.90
22471;DHT22;11402;51.374;6.594;2023-01-29T02:05:26;-2.30;99.90
22471;DHT22;11402;51.374;6.594;2023-01-29T02:08:11;-2.20;99.90
22471;DHT22;11402;51.374;6.594;2023-01-29T02:10:57;-2.30;99.90
22471;DHT22;11402;51.374;6.594;2023-01-29T02:13:22;-2.30;99.90
22471;DHT22;11402;51.374;6.594;2023-01-29T02:15:48;-2.30;99.90
22471;DHT22;11402;51.374;6.594;2023-01-29T02:18:19;-2.30;99.90
22471;DHT22;11402;51.374;6.594;2023-01-29T02:23:53;-2.20;99.90
22471;DHT22;11402;51.374;6.594;2023-01-29T02:26:38;-2.30;99.90
22471;DHT22;11402;51.374;6.594;2023-01-29T02:35:05;-2.20;99.90
22471;DHT22;11402;51.374;6.594;2023-01-29T02:40:51;-2.10;99.90
22471;DHT22;11402;51.374;6.594;2023-01-29T02:51:23;-2.10;99.90
22471;DHT22;11402;51.374;6.594;2023-01-29T02:53:58;-2.10;99.90
22471;DHT22;11402;51.374;6.594;2023-01-29T02:56:32;-2.10;99.90
22471;DHT22;11402;51.374;6.594;2023-01-29T02:59:08;-2.10;99.90
22471;DHT22;11402;51.374;6.594;2023-01-29T03:01:39;-2.00;99.90
22471;DHT22;11402;51.374;6.594;2023-01-29T03:04:10;-2.00;99.90
22471;DHT22;11402;51.374;6.594;2023-01-29T03:06:41;-2.00;99.90
22471;DHT22;11402;51.374;6.594;2023-01-29T03:12:00;-2.10;99.90
22471;DHT22;11402;51.374;6.594;2023-01-29T03:14:34;-2.10;99.90
22471;DHT22;11402;51.374;6.594;2023-01-29T03:17:27;-2.10;99.90
22471;DHT22;11402;51.374;6.594;2023-01-29T03:19:56;-2.10;99.90
22471;DHT22;11402;51.374;6.594;2023-01-29T03:22:23;-2.00;99.90
22471;DHT22;11402;51.374;6.594;2023-01-29T03:24:52;-1.80;99.90
22471;DHT22;11402;51.374;6.594;2023-01-29T03:27:45;-2.00;99.90
22471;DHT22;11402;51.374;6.594;2023-01-29T03:30:34;-2.10;99.90
22471;DHT22;11402;51.374;6.594;2023-01-29T03:33:20;-2.10;99.90
22471;DHT22;11402;51.374;6.594;2023-01-29T03:35:57;-1.90;99.90
22471;DHT22;11402;51.374;6.594;2023-01-29T03:38:25;-1.90;99.90
22471;DHT22;11402;51.374;6.594;2023-01-29T03:44:11;-2.10;99.90
22471;DHT22;11402;51.374;6.594;2023-01-29T03:49:22;-2.20;99.90
22471;DHT22;11402;51.374;6.594;2023-01-29T03:51:59;-2.00;99.90
22471;DHT22;11402;51.374;6.594;2023-01-29T03:54:34;-2.00;99.90
22471;DHT22;11402;51.374;6.594;2023-01-29T03:57:14;-2.20;99.90
22471;DHT22;11402;51.374;6.594;2023-01-29T03:59:47;-2.20;99.90
22471;DHT22;11402;51.374;6.594;2023-01-29T04:02:26;-2.20;99.90
22471;DHT22;11402;51.374;6.594;2023-01-29T04:04:58;-2.20;99.90
22471;DHT22;11402;51.374;6.594;2023-01-29T04:07:25;-2.20;99.90
22471;DHT22;11402;51.374;6.594;2023-01-29T04:12:27;-2.10;99.90
22471;DHT22;11402;51.374;6.594;2023-01-29T04:14:55;-2.10;99.90
22471;DHT22;11402;51.374;6.594;2023-01-29T04:17:27;-2.10;99.90
22471;DHT22;11402;51.374;6.594;2023-01-29T04:19:58;-2.10;99.90
22471;DHT22;11402;51.374;6.594;2023-01-29T04:22:32;-2.00;99.90
22471;DHT22;11402;51.374;6.594;2023-01-29T04:25:02;-1.90;99.90
22471;DHT22;11402;51.374;6.594;2023-01-29T04:33:06;-1.70;99.90
22471;DHT22;11402;51.374;6.594;2023-01-29T04:35:53;-1.70;99.90
22471;DHT22;11402;51.374;6.594;2023-01-29T04:39:03;-1.70;99.90
22471;DHT22;11402;51.374;6.594;2023-01-29T04:41:37;-1.60;99.90
22471;DHT22;11402;51.374;6.594;2023-01-29T04:44:21;-1.60;99.90
22471;DHT22;11402;51.374;6.594;2023-01-29T04:55:16;-1.40;99.90
22471;DHT22;11402;51.374;6.594;2023-01-29T04:57:52;-1.40;99.90
22471;DHT22;11402;51.374;6.594;2023-01-29T05:00:26;-1.40;99.90
22471;DHT22;11402;51.374;6.594;2023-01-29T05:02:53;-1.30;99.90
22471;DHT22;11402;51.374;6.594;2023-01-29T05:05:19;-1.30;99.90
22471;DHT22;11402;51.374;6.594;2023-01-29T05:07:46;-1.30;99.90
22471;DHT22;11402;51.374;6.594;2023-01-29T05:10:15;-1.20;99.90
22471;DHT22;11402;51.374;6.594;2023-01-29T05:12:44;-1.20;99.90
22471;DHT22;11402;51.374;6.594;2023-01-29T05:15:13;-1.10;99.90
22471;DHT22;11402;51.374;6.594;2023-01-29T05:17:41;-1.10;99.90
22471;DHT22;11402;51.374;6.594;2023-01-29T05:20:08;-1.00;99.90
22471;DHT22;11402;51.374;6.594;2023-01-29T05:22:37;-0.90;99.90
22471;DHT22;11402;51.374;6.594;2023-01-29T05:25:25;-0.90;99.90
22471;DHT22;11402;51.374;6.594;2023-01-29T05:27:52;-0.80;99.90
22471;DHT22;11402;51.374;6.594;2023-01-29T05:30:37;-0.80;99.90
22471;DHT22;11402;51.374;6.594;2023-01-29T05:33:10;-0.80;99.90
22471;DHT22;11402;51.374;6.594;2023-01-29T05:35:36;-0.80;99.90
22471;DHT22;11402;51.374;6.594;2023-01-29T05:38:01;-0.90;99.90
22471;DHT22;11402;51.374;6.594;2023-01-29T05:40:27;-0.90;99.90
22471;DHT22;11402;51.374;6.594;2023-01-29T05:42:53;-0.90;99.90
22471;DHT22;11402;51.374;6.594;2023-01-29T05:45:18;-0.90;99.90
22471;DHT22;11402;51.374;6.594;2023-01-29T05:47:45;-0.80;99.90
22471;DHT22;11402;51.374;6.594;2023-01-29T05:50:12;-0.80;99.90
22471;DHT22;11402;51.374;6.594;2023-01-29T05:52:39;-0.70;99.90
22471;DHT22;11402;51.374;6.594;2023-01-29T05:55:05;-0.80;99.90
22471;DHT22;11402;51.374;6.594;2023-01-29T05:57:31;-0.70;99.90
22471;DHT22;11402;51.374;6.594;2023-01-29T05:59:56;-0.70;99.90
22471;DHT22;11402;51.374;6.594;2023-01-29T06:02:22;-0.60;99.90
22471;DHT22;11402;51.374;6.594;2023-01-29T06:04:50;-0.50;99.90
22471;DHT22;11402;51.374;6.594;2023-01-29T06:07:17;-0.60;99.90
22471;DHT22;11402;51.374;6.594;2023-01-29T06:09:42;-0.40;99.90
22471;DHT22;11402;51.374;6.594;2023-01-29T06:12:08;-0.30;99.90
22471;DHT22;11402;51.374;6.594;2023-01-29T06:14:33;-0.40;99.90
22471;DHT22;11402;51.374;6.594;2023-01-29T06:16:59;-0.40;99.90
22471;DHT22;11402;51.374;6.594;2023-01-29T06:19:25;-0.40;99.90
22471;DHT22;11402;51.374;6.594;2023-01-29T06:21:50;-0.40;99.90
22471;DHT22;11402;51.374;6.594;2023-01-29T06:24:16;-0.40;99.90
22471;DHT22;11402;51.374;6.594;2023-01-29T06:26:41;-0.30;99.90
22471;DHT22;11402;51.374;6.594;2023-01-29T06:29:07;-0.40;99.90
22471;DHT22;11402;51.374;6.594;2023-01-29T06:31:32;-0.50;99.90
22471;DHT22;11402;51.374;6.594;2023-01-29T06:33:58;-0.30;99.90
22471;DHT22;11402;51.374;6.594;2023-01-29T06:36:23;-0.30;99.90
22471;DHT22;11402;51.374;6.594;2023-01-29T06:38:49;-0.20;99.90
22471;DHT22;11402;51.374;6.594;2023-01-29T06:41:18;-0.30;99.90
22471;DHT22;11402;51.374;6.594;2023-01-29T06:43:44;-0.20;99.90
22471;DHT22;11402;51.374;6.594;2023-01-29T06:46:10;-0.20;99.90
22471;DHT22;11402;51.374;6.594;2023-01-29T06:48:36;0.00;99.90
22471;DHT22;11402;51.374;6.594;2023-01-29T06:51:03;0.00;99.90
22471;DHT22;11402;51.374;6.594;2023-01-29T06:53:29;-0.10;99.90
22471;DHT22;11402;51.374;6.594;2023-01-29T06:55:55;0.00;99.90
22471;DHT22;11402;51.374;6.594;2023-01-29T06:58:20;-0.10;99.90
22471;DHT22;11402;51.374;6.594;2023-01-29T07:00:46;-0.30;99.90
22471;DHT22;11402;51.374;6.594;2023-01-29T07:03:12;-0.20;99.90
22471;DHT22;11402;51.374;6.594;2023-01-29T07:05:37;-0.20;99.90
22471;DHT22;11402;51.374;6.594;2023-01-29T07:08:03;-0.10;99.90
22471;DHT22;11402;51.374;6.594;2023-01-29T07:10:29;0.00;99.90
22471;DHT22;11402;51.374;6.594;2023-01-29T07:12:54;0.20;99.90
22471;DHT22;11402;51.374;6.594;2023-01-29T07:15:20;0.10;99.90
22471;DHT22;11402;51.374;6.594;2023-01-29T07:17:59;0.10;99.90
22471;DHT22;11402;51.374;6.594;2023-01-29T07:20:26;0.20;99.90
22471;DHT22;11402;51.374;6.594;2023-01-29T07:22:52;0.10;99.90
22471;DHT22;11402;51.374;6.594;2023-01-29T07:25:19;-0.10;99.90
22471;DHT22;11402;51.374;6.594;2023-01-29T07:27:44;-0.20;99.90
22471;DHT22;11402;51.374;6.594;2023-01-29T07:30:10;-0.40;99.90
22471;DHT22;11402;51.374;6.594;2023-01-29T07:32:36;-0.50;99.90
22471;DHT22;11402;51.374;6.594;2023-01-29T07:35:01;-0.50;99.90
22471;DHT22;11402;51.374;6.594;2023-01-29T07:37:27;-0.50;99.90
22471;DHT22;11402;51.374;6.594;2023-01-29T07:39:52;-0.50;99.90
22471;DHT22;11402;51.374;6.594;2023-01-29T07:42:18;-0.40;99.90
22471;DHT22;11402;51.374;6.594;2023-01-29T07:44:44;-0.50;99.90
22471;DHT22;11402;51.374;6.594;2023-01-29T07:47:10;-0.40;99.90
22471;DHT22;11402;51.374;6.594;2023-01-29T07:49:36;-0.40;99.90
22471;DHT22;11402;51.374;6.594;2023-01-29T07:52:01;-0.50;99.90
22471;DHT22;11402;51.374;6.594;2023-01-29T07:54:27;-0.40;99.90
22471;DHT22;11402;51.374;6.594;2023-01-29T07:56:52;-0.40;99.90
22471;DHT22;11402;51.374;6.594;2023-01-29T07:59:18;-0.30;99.90
22471;DHT22;11402;51.374;6.594;2023-01-29T08:01:43;-0.10;99.90
22471;DHT22;11402;51.374;6.594;2023-01-29T08:04:09;-0.20;99.90
22471;DHT22;11402;51.374;6.594;2023-01-29T08:06:35;-0.30;99.90
22471;DHT22;11402;51.374;6.594;2023-01-29T08:09:00;-0.10;99.90
22471;DHT22;11402;51.374;6.594;2023-01-29T08:11:26;0.10;99.90
22471;DHT22;11402;51.374;6.594;2023-01-29T08:13:52;0.10;99.90
22471;DHT22;11402;51.374;6.594;2023-01-29T08:16:18;0.30;99.90
22471;DHT22;11402;51.374;6.594;2023-01-29T08:18:44;0.40;99.90
22471;DHT22;11402;51.374;6.594;2023-01-29T08:21:12;0.30;99.90
22471;DHT22;11402;51.374;6.594;2023-01-29T08:23:37;0.40;99.90
22471;DHT22;11402;51.374;6.594;2023-01-29T08:26:03;0.30;99.90
22471;DHT22;11402;51.374;6.594;2023-01-29T08:28:30;0.50;99.90
22471;DHT22;11402;51.374;6.594;2023-01-29T08:30:56;0.40;99.90
22471;DHT22;11402;51.374;6.594;2023-01-29T08:33:21;0.50;99.90
22471;DHT22;11402;51.374;6.594;2023-01-29T08:35:49;0.70;99.90
22471;DHT22;11402;51.374;6.594;2023-01-29T08:38:15;0.60;99.90
22471;DHT22;11402;51.374;6.594;2023-01-29T08:40:41;0.50;99.90
22471;DHT22;11402;51.374;6.594;2023-01-29T08:43:07;0.40;99.90
22471;DHT22;11402;51.374;6.594;2023-01-29T08:45:37;0.30;99.90
22471;DHT22;11402;51.374;6.594;2023-01-29T08:48:03;0.30;99.90
22471;DHT22;11402;51.374;6.594;2023-01-29T08:50:28;0.20;99.90
22471;DHT22;11402;51.374;6.594;2023-01-29T08:52:59;0.40;99.90
22471;DHT22;11402;51.374;6.594;2023-01-29T08:55:26;0.40;99.90
22471;DHT22;11402;51.374;6.594;2023-01-29T08:57:51;0.60;99.90
22471;DHT22;11402;51.374;6.594;2023-01-29T09:00:17;0.40;99.90
22471;DHT22;11402;51.374;6.594;2023-01-29T09:02:43;0.30;99.90
22471;DHT22;11402;51.374;6.594;2023-01-29T09:05:09;0.20;99.90
22471;DHT22;11402;51.374;6.594;2023-01-29T09:07:34;0.10;99.90
22471;DHT22;11402;51.374;6.594;2023-01-29T09:10:00;0.10;99.90
22471;DHT22;11402;51.374;6.594;2023-01-29T09:12:26;0.00;99.90
22471;DHT22;11402;51.374;6.594;2023-01-29T09:14:52;0.10;99.90
22471;DHT22;11402;51.374;6.594;2023-01-29T09:17:17;0.20;99.90
22471;DHT22;11402;51.374;6.594;2023-01-29T09:19:43;0.20;99.90
22471;DHT22;11402;51.374;6.594;2023-01-29T09:22:08;0.20;99.90
22471;DHT22;11402;51.374;6.594;2023-01-29T09:24:34;0.30;99.90
22471;DHT22;11402;51.374;6.594;2023-01-29T09:27:00;0.30;99.90
22471;DHT22;11402;51.374;6.594;2023-01-29T09:29:26;0.40;99.90
22471;DHT22;11402;51.374;6.594;2023-01-29T09:31:51;0.20;99.90
22471;DHT22;11402;51.374;6.594;2023-01-29T09:34:17;0.30;99.90
22471;DHT22;11402;51.374;6.594;2023-01-29T09:36:42;0.30;99.90
22471;DHT22;11402;51.374;6.594;2023-01-29T09:39:08;0.40;99.90
22471;DHT22;11402;51.374;6.594;2023-01-29T09:47:15;0.50;99.90
22471;DHT22;11402;51.374;6.594;2023-01-29T09:49:46;0.40;99.90
22471;DHT22;11402;51.374;6.594;2023-01-29T09:52:29;0.40;99.90
22471;DHT22;11402;51.374;6.594;2023-01-29T09:57:47;0.60;99.90
22471;DHT22;11402;51.374;6.594;2023-01-29T10:00:22;0.60;99.90
22471;DHT22;11402;51.374;6.594;2023-01-29T10:05:40;0.50;99.90
22471;DHT22;11402;51.374;6.594;2023-01-29T10:11:20;0.80;99.90
22471;DHT22;11402;51.374;6.594;2023-01-29T10:14:28;0.80;99.90
22471;DHT22;11402;51.374;6.594;2023-01-29T10:17:00;0.80;99.90
22471;DHT22;11402;51.374;6.594;2023-01-29T10:19:37;0.80;99.90
22471;DHT22;11402;51.374;6.594;2023-01-29T10:22:41;0.90;99.90
22471;DHT22;11402;51.374;6.594;2023-01-29T10:25:16;0.90;99.90
22471;DHT22;11402;51.374;6.594;2023-01-29T10:27:56;1.00;99.90
22471;DHT22;11402;51.374;6.594;2023-01-29T10:30:32;1.10;99.90
22471;DHT22;11402;51.374;6.594;2023-01-29T10:33:02;1.10;99.90
22471;DHT22;11402;51.374;6.594;2023-01-29T10:35:33;1.00;99.90
22471;DHT22;11402;51.374;6.594;2023-01-29T10:38:15;1.00;99.90
22471;DHT22;11402;51.374;6.594;2023-01-29T10:46:43;1.10;99.90
22471;DHT22;11402;51.374;6.594;2023-01-29T11:00:32;1.10;99.90
22471;DHT22;11402;51.374;6.594;2023-01-29T11:05:48;1.10;99.90
22471;DHT22;11402;51.374;6.594;2023-01-29T11:08:18;1.20;99.90
22471;DHT22;11402;51.374;6.594;2023-01-29T11:11:02;1.20;99.90
22471;DHT22;11402;51.374;6.594;2023-01-29T11:13:33;1.30;99.90
22471;DHT22;11402;51.374;6.594;2023-01-29T11:16:00;1.20;99.90
22471;DHT22;11402;51.374;6.594;2023-01-29T11:18:51;1.20;99.90
22471;DHT22;11402;51.374;6.594;2023-01-29T11:21:17;1.40;99.90
22471;DHT22;11402;51.374;6.594;2023-01-29T11:23:42;1.50;99.90
22471;DHT22;11402;51.374;6.594;2023-01-29T11:26:12;1.40;99.90
22471;DHT22;11402;51.374;6.594;2023-01-29T11:28:43;1.50;99.90
22471;DHT22;11402;51.374;6.594;2023-01-29T11:31:35;1.50;99.90
22471;DHT22;11402;51.374;6.594;2023-01-29T11:34:11;1.60;99.90
22471;DHT22;11402;51.374;6.594;2023-01-29T11:36:38;1.50;99.90
22471;DHT22;11402;51.374;6.594;2023-01-29T11:39:25;1.60;99.90
22471;DHT22;11402;51.374;6.594;2023-01-29T11:42:02;1.60;99.90
22471;DHT22;11402;51.374;6.594;2023-01-29T11:44:42;1.50;99.90
22471;DHT22;11402;51.374;6.594;2023-01-29T11:47:20;1.60;99.90
22471;DHT22;11402;51.374;6.594;2023-01-29T11:49:59;1.60;99.90
22471;DHT22;11402;51.374;6.594;2023-01-29T11:52:37;1.70;99.90
22471;DHT22;11402;51.374;6.594;2023-01-29T11:55:10;1.70;99.90
22471;DHT22;11402;51.374;6.594;2023-01-29T11:57:41;1.60;99.90
22471;DHT22;11402;51.374;6.594;2023-01-29T12:00:19;1.70;99.90
22471;DHT22;11402;51.374;6.594;2023-01-29T12:03:03;1.80;99.90
22471;DHT22;11402;51.374;6.594;2023-01-29T12:05:31;1.90;99.90
22471;DHT22;11402;51.374;6.594;2023-01-29T12:07:59;1.90;99.90
22471;DHT22;11402;51.374;6.594;2023-01-29T12:10:32;1.90;99.90
22471;DHT22;11402;51.374;6.594;2023-01-29T12:15:43;2.10;99.90
22471;DHT22;11402;51.374;6.594;2023-01-29T12:20:55;2.20;99.90
22471;DHT22;11402;51.374;6.594;2023-01-29T12:24:01;2.30;99.90
22471;DHT22;11402;51.374;6.594;2023-01-29T12:26:38;2.20;99.90
22471;DHT22;11402;51.374;6.594;2023-01-29T12:29:20;2.10;99.90
22471;DHT22;11402;51.374;6.594;2023-01-29T12:34:54;2.30;99.90
22471;DHT22;11402;51.374;6.594;2023-01-29T12:37:23;2.30;99.90
22471;DHT22;11402;51.374;6.594;2023-01-29T12:39:51;2.30;99.90
22471;DHT22;11402;51.374;6.594;2023-01-29T12:42:23;2.30;99.90
22471;DHT22;11402;51.374;6.594;2023-01-29T12:44:59;2.30;99.90
22471;DHT22;11402;51.374;6.594;2023-01-29T12:47:37;2.40;99.90
22471;DHT22;11402;51.374;6.594;2023-01-29T12:50:27;2.30;99.90
22471;DHT22;11402;51.374;6.594;2023-01-29T12:53:20;2.30;99.90
22471;DHT22;11402;51.374;6.594;2023-01-29T12:55:50;2.40;99.90
22471;DHT22;11402;51.374;6.594;2023-01-29T12:58:33;2.50;99.90
22471;DHT22;11402;51.374;6.594;2023-01-29T13:01:19;2.50;99.90
22471;DHT22;11402;51.374;6.594;2023-01-29T13:04:28;2.60;99.90
22471;DHT22;11402;51.374;6.594;2023-01-29T13:06:46;2.60;99.90
22471;DHT22;11402;51.374;6.594;2023-01-29T13:09:16;2.40;99.90
22471;DHT22;11402;51.374;6.594;2023-01-29T13:11:52;2.50;99.90
22471;DHT22;11402;51.374;6.594;2023-01-29T13:14:25;2.60;99.90
22471;DHT22;11402;51.374;6.594;2023-01-29T13:17:02;2.70;99.90
22471;DHT22;11402;51.374;6.594;2023-01-29T13:19:35;2.70;99.90
22471;DHT22;11402;51.374;6.594;2023-01-29T13:22:05;2.60;99.90
22471;DHT22;11402;51.374;6.594;2023-01-29T13:24:40;2.80;99.90
22471;DHT22;11402;51.374;6.594;2023-01-29T13:27:25;3.00;99.90
22471;DHT22;11402;51.374;6.594;2023-01-29T13:29:52;3.10;99.90
22471;DHT22;11402;51.374;6.594;2023-01-29T13:32:22;3.40;99.90
22471;DHT22;11402;51.374;6.594;2023-01-29T13:34:49;3.20;99.90
22471;DHT22;11402;51.374;6.594;2023-01-29T13:37:34;3.30;99.90
22471;DHT22;11402;51.374;6.594;2023-01-29T13:40:04;3.30;99.90
22471;DHT22;11402;51.374;6.594;2023-01-29T13:42:46;3.40;99.90
22471;DHT22;11402;51.374;6.594;2023-01-29T13:45:22;3.40;99.90
22471;DHT22;11402;51.374;6.594;2023-01-29T13:47:50;3.40;99.90
22471;DHT22;11402;51.374;6.594;2023-01-29T13:50:35;3.30;99.90
22471;DHT22;11402;51.374;6.594;2023-01-29T13:53:03;3.30;99.90
22471;DHT22;11402;51.374;6.594;2023-01-29T13:55:38;3.30;99.90
22471;DHT22;11402;51.374;6.594;2023-01-29T13:58:04;3.20;99.90
22471;DHT22;11402;51.374;6.594;2023-01-29T14:08:00;3.00;99.90
22471;DHT22;11402;51.374;6.594;2023-01-29T14:10:31;3.30;99.90
22471;DHT22;11402;51.374;6.594;2023-01-29T14:15:33;3.10;99.90
22471;DHT22;11402;51.374;6.594;2023-01-29T14:23:02;3.10;99.90
22471;DHT22;11402;51.374;6.594;2023-01-29T14:25:39;3.20;99.90
22471;DHT22;11402;51.374;6.594;2023-01-29T14:28:14;3.20;99.90
22471;DHT22;11402;51.374;6.594;2023-01-29T14:30:45;3.20;99.90
22471;DHT22;11402;51.374;6.594;2023-01-29T14:33:33;3.20;99.90
22471;DHT22;11402;51.374;6.594;2023-01-29T14:36:03;3.10;99.90
22471;DHT22;11402;51.374;6.594;2023-01-29T14:38:30;3.30;99.90
22471;DHT22;11402;51.374;6.594;2023-01-29T14:41:29;3.20;99.90
22471;DHT22;11402;51.374;6.594;2023-01-29T14:46:58;3.00;99.90
22471;DHT22;11402;51.374;6.594;2023-01-29T14:52:15;3.20;99.90
22471;DHT22;11402;51.374;6.594;2023-01-29T14:54:41;3.20;99.90
22471;DHT22;11402;51.374;6.594;2023-01-29T14:57:10;3.30;99.90
22471;DHT22;11402;51.374;6.594;2023-01-29T14:59:52;3.30;99.90
22471;DHT22;11402;51.374;6.594;2023-01-29T15:02:23;3.40;99.90
22471;DHT22;11402;51.374;6.594;2023-01-29T15:04:54;3.10;99.90
22471;DHT22;11402;51.374;6.594;2023-01-29T15:07:38;3.20;99.90
22471;DHT22;11402;51.374;6.594;2023-01-29T15:10:36;3.00;99.90
22471;DHT22;11402;51.374;6.594;2023-01-29T15:13:10;3.00;99.90
22471;DHT22;11402;51.374;6.594;2023-01-29T15:15:45;3.10;99.90
22471;DHT22;11402;51.374;6.594;2023-01-29T15:18:19;3.00;99.90
22471;DHT22;11402;51.374;6.594;2023-01-29T15:20:48;2.90;99.90
22471;DHT22;11402;51.374;6.594;2023-01-29T15:23:27;3.00;99.90
22471;DHT22;11402;51.374;6.594;2023-01-29T15:25:55;2.90;99.90
22471;DHT22;11402;51.374;6.594;2023-01-29T15:28:21;3.00;99.90
22471;DHT22;11402;51.374;6.594;2023-01-29T15:30:54;3.00;99.90
22471;DHT22;11402;51.374;6.594;2023-01-29T15:33:20;3.00;99.90
22471;DHT22;11402;51.374;6.594;2023-01-29T15:35:46;3.00;99.90
22471;DHT22;11402;51.374;6.594;2023-01-29T15:38:23;3.00;99.90
22471;DHT22;11402;51.374;6.594;2023-01-29T15:40:56;3.10;99.90
22471;DHT22;11402;51.374;6.594;2023-01-29T15:43:27;3.20;99.90
22471;DHT22;11402;51.374;6.594;2023-01-29T15:46:16;3.00;99.90
22471;DHT22;11402;51.374;6.594;2023-01-29T15:48:43;3.10;99.90
22471;DHT22;11402;51.374;6.594;2023-01-29T15:51:15;3.10;99.90
22471;DHT22;11402;51.374;6.594;2023-01-29T15:53:48;3.10;99.90
22471;DHT22;11402;51.374;6.594;2023-01-29T15:56:39;3.00;99.90
22471;DHT22;11402;51.374;6.594;2023-01-29T15:59:04;3.00;99.90
22471;DHT22;11402;51.374;6.594;2023-01-29T16:01:31;3.00;99.90
22471;DHT22;11402;51.374;6.594;2023-01-29T16:03:58;2.90;99.90
22471;DHT22;11402;51.374;6.594;2023-01-29T16:06:33;3.00;99.90
22471;DHT22;11402;51.374;6.594;2023-01-29T16:09:00;3.00;99.90
22471;DHT22;11402;51.374;6.594;2023-01-29T16:11:26;2.80;99.90
22471;DHT22;11402;51.374;6.594;2023-01-29T16:13:52;2.90;99.90
22471;DHT22;11402;51.374;6.594;2023-01-29T16:18:46;3.00;99.90
22471;DHT22;11402;51.374;6.594;2023-01-29T16:21:25;2.90;99.90
22471;DHT22;11402;51.374;6.594;2023-01-29T16:24:04;2.80;99.90
22471;DHT22;11402;51.374;6.594;2023-01-29T16:26:37;2.70;99.90
22471;DHT22;11402;51.374;6.594;2023-01-29T16:29:05;2.80;99.90
22471;DHT22;11402;51.374;6.594;2023-01-29T16:31:32;2.70;99.90
22471;DHT22;11402;51.374;6.594;2023-01-29T16:33:58;2.80;99.90
22471;DHT22;11402;51.374;6.594;2023-01-29T16:36:29;2.80;99.90
22471;DHT22;11402;51.374;6.594;2023-01-29T16:39:00;2.80;99.90
22471;DHT22;11402;51.374;6.594;2023-01-29T16:41:34;2.80;99.90
22471;DHT22;11402;51.374;6.594;2023-01-29T16:44:30;2.80;99.90
22471;DHT22;11402;51.374;6.594;2023-01-29T16:47:11;3.00;99.90
22471;DHT22;11402;51.374;6.594;2023-01-29T16:52:27;3.00;99.90
22471;DHT22;11402;51.374;6.594;2023-01-29T16:57:38;3.10;99.90
22471;DHT22;11402;51.374;6.594;2023-01-29T17:00:06;3.10;99.90
22471;DHT22;11402;51.374;6.594;2023-01-29T17:02:37;2.90;99.90
22471;DHT22;11402;51.374;6.594;2023-01-29T17:05:09;2.90;99.90
22471;DHT22;11402;51.374;6.594;2023-01-29T17:07:44;2.80;99.90
22471;DHT22;11402;51.374;6.594;2023-01-29T17:10:16;2.80;99.90
22471;DHT22;11402;51.374;6.594;2023-01-29T17:12:49;2.80;99.90
22471;DHT22;11402;51.374;6.594;2023-01-29T17:17:59;2.80;99.90
22471;DHT22;11402;51.374;6.594;2023-01-29T17:20:25;2.90;99.90
22471;DHT22;11402;51.374;6.594;2023-01-29T17:22:50;3.00;99.90
22471;DHT22;11402;51.374;6.594;2023-01-29T17:25:16;3.10;99.90
22471;DHT22;11402;51.374;6.594;2023-01-29T17:27:43;3.10;99.90
22471;DHT22;11402;51.374;6.594;2023-01-29T17:30:17;3.00;99.90
22471;DHT22;11402;51.374;6.594;2023-01-29T17:32:43;3.00;99.90
22471;DHT22;11402;51.374;6.594;2023-01-29T17:35:11;3.00;99.90
22471;DHT22;11402;51.374;6.594;2023-01-29T17:37:42;3.10;99.90
22471;DHT22;11402;51.374;6.594;2023-01-29T17:40:27;3.10;99.90
22471;DHT22;11402;51.374;6.594;2023-01-29T17:42:54;2.90;99.90
22471;DHT22;11402;51.374;6.594;2023-01-29T17:45:20;3.10;99.90
22471;DHT22;11402;51.374;6.594;2023-01-29T17:47:45;3.10;99.90
22471;DHT22;11402;51.374;6.594;2023-01-29T17:50:18;3.10;99.90
22471;DHT22;11402;51.374;6.594;2023-01-29T17:52:45;3.00;99.90
22471;DHT22;11402;51.374;6.594;2023-01-29T17:55:11;3.10;99.90
22471;DHT22;11402;51.374;6.594;2023-01-29T17:57:37;3.10;99.90
22471;DHT22;11402;51.374;6.594;2023-01-29T18:00:05;3.10;99.90
22471;DHT22;11402;51.374;6.594;2023-01-29T18:02:33;3.10;99.90
22471;DHT22;11402;51.374;6.594;2023-01-29T18:04:59;3.00;99.90